Time;durP1;ratioP1;P1;durP2;ratioP2;P2;SDS_P1;SDS_P2;PMS_P1;PMS_P2;Temp;Humidity;BMP_temperature;BMP_pressure;BME280_temperature;BME280_humidity;BME280_pressure;Samples;Min_cycle;Max_cycle;Signal;HPM_P1;HPM_P2
2022/04/21 00:00:31;;;;;;;5.43;2.83;;;;;;;;;;5016770;28;20291;-66
2022/04/21 00:02:57;;;;;;;6.43;2.75;;;;;;;;;;5048007;28;20540;-64
2022/04/21 00:05:22;;;;;;;4.68;2.90;;;;;;;;;;5025321;28;20064;-64
2022/04/21 00:07:49;;;;;;;6.32;2.83;;;;;;;;;;5018150;28;20034;-64
2022/04/21 00:10:16;;;;;;;6.15;2.83;;;;;;;;;;5016680;28;20104;-64
2022/04/21 00:12:41;;;;;;;7.50;2.88;;;;;;;;;;5031680;28;20033;-64
2022/04/21 00:15:08;;;;;;;5.38;3.00;;;;;;;;;;5030261;28;20036;-65
2022/04/21 00:17:33;;;;;;;6.05;2.83;;;;;;;;;;5040099;28;20037;-65
2022/04/21 00:19:59;;;;;;;6.18;3.15;;;;;;;;;;5033839;28;20033;-64
2022/04/21 00:25:09;;;;;;;6.93;3.10;;;;;;;;;;5026755;28;20080;-65
2022/04/21 00:27:42;;;;;;;6.57;2.80;;;;;;;;;;5028023;28;20057;-65
2022/04/21 00:30:10;;;;;;;4.90;3.00;;;;;;;;;;5016200;28;20042;-65
2022/04/21 00:32:37;;;;;;;7.00;3.13;;;;;;;;;;5025941;28;20033;-64
2022/04/21 00:35:04;;;;;;;5.00;2.75;;;;;;;;;;5012894;28;20117;-64
2022/04/21 00:37:29;;;;;;;7.10;2.80;;;;;;;;;;5050767;28;20041;-64
2022/04/21 00:39:55;;;;;;;4.68;2.88;;;;;;;;;;5018576;28;20041;-64
2022/04/21 00:42:20;;;;;;;9.07;3.05;;;;;;;;;;5028409;28;20078;-64
2022/04/21 00:44:46;;;;;;;4.65;3.00;;;;;;;;;;5031173;28;20079;-65
2022/04/21 00:47:12;;;;;;;5.30;2.75;;;;;;;;;;5042151;28;20083;-64
2022/04/21 00:49:39;;;;;;;4.85;3.00;;;;;;;;;;5023529;28;20034;-65
2022/04/21 00:52:04;;;;;;;5.55;2.83;;;;;;;;;;5026992;28;20515;-65
2022/04/21 00:54:32;;;;;;;3.92;2.70;;;;;;;;;;5028504;28;20109;-64
2022/04/21 00:57:00;;;;;;;5.40;3.20;;;;;;;;;;5048283;28;20044;-65
2022/04/21 00:59:26;;;;;;;6.20;2.83;;;;;;;;;;5033450;28;20036;-64
2022/04/21 01:04:38;;;;;;;5.03;2.88;;;;;;;;;;5028032;28;20094;-64
2022/04/21 01:07:08;;;;;;;8.07;3.15;;;;;;;;;;5032769;28;20528;-65
2022/04/21 01:09:40;;;;;;;4.72;2.92;;;;;;;;;;5031823;28;20022;-64
2022/04/21 01:12:11;;;;;;;4.40;2.92;;;;;;;;;;5032723;28;20033;-64
2022/04/21 01:14:39;;;;;;;10.13;3.53;;;;;;;;;;5040086;28;20048;-64
2022/04/21 01:17:09;;;;;;;6.78;3.50;;;;;;;;;;5032581;28;20044;-64
2022/04/21 01:19:35;;;;;;;6.53;3.67;;;;;;;;;;5043641;28;20029;-64
2022/04/21 01:22:01;;;;;;;6.25;3.33;;;;;;;;;;5038325;28;20045;-64
2022/04/21 01:24:27;;;;;;;8.35;3.60;;;;;;;;;;5039660;28;20029;-64
2022/04/21 01:26:54;;;;;;;7.70;3.83;;;;;;;;;;5023108;28;20391;-64
2022/04/21 01:29:19;;;;;;;6.07;3.40;;;;;;;;;;5029483;28;20396;-63
2022/04/21 01:31:45;;;;;;;6.57;3.42;;;;;;;;;;5028133;28;20035;-64
2022/04/21 01:34:10;;;;;;;6.88;3.70;;;;;;;;;;5015377;28;20033;-64
2022/04/21 01:41:08;;;;;;;7.43;3.58;;;;;;;;;;5029250;28;20025;-64
2022/04/21 01:42:05;;;;;;;5.32;3.55;;;;;;;;;;5019641;28;20041;-65
2022/04/21 01:44:31;;;;;;;7.25;3.83;;;;;;;;;;5012929;28;20030;-65
2022/04/21 01:46:56;;;;;;;6.13;3.60;;;;;;;;;;5028204;28;20037;-65
2022/04/21 01:49:22;;;;;;;9.57;3.72;;;;;;;;;;5026537;28;20037;-64
2022/04/21 01:51:47;;;;;;;5.85;3.60;;;;;;;;;;5029798;28;20380;-64
2022/04/21 01:54:12;;;;;;;5.90;3.50;;;;;;;;;;5029737;28;20041;-64
2022/04/21 01:56:38;;;;;;;5.50;3.60;;;;;;;;;;5028344;28;20535;-64
2022/04/21 01:59:04;;;;;;;8.40;3.97;;;;;;;;;;5030505;28;20044;-64
2022/04/21 02:01:30;;;;;;;7.28;3.50;;;;;;;;;;5026041;28;20059;-64
2022/04/21 02:03:55;;;;;;;7.03;3.75;;;;;;;;;;5014037;28;20546;-64
2022/04/21 02:06:20;;;;;;;6.88;3.55;;;;;;;;;;5019274;28;20048;-63
2022/04/21 02:08:46;;;;;;;5.72;3.80;;;;;;;;;;5025038;28;20520;-64
2022/04/21 02:11:12;;;;;;;6.25;3.50;;;;;;;;;;5033230;28;20042;-64
2022/04/21 02:13:37;;;;;;;8.82;3.55;;;;;;;;;;5011591;28;20116;-63
2022/04/21 02:16:03;;;;;;;5.55;3.30;;;;;;;;;;5018359;28;20041;-63
2022/04/21 02:18:29;;;;;;;6.07;3.78;;;;;;;;;;5024726;28;20037;-64
2022/04/21 02:20:55;;;;;;;5.95;3.90;;;;;;;;;;5020457;28;20376;-64
2022/04/21 02:23:20;;;;;;;5.60;3.67;;;;;;;;;;5033717;28;20131;-63
2022/04/21 02:25:46;;;;;;;8.45;3.83;;;;;;;;;;5032231;28;20037;-64
2022/04/21 02:28:11;;;;;;;6.88;3.83;;;;;;;;;;5015390;28;20032;-64
2022/04/21 02:30:37;;;;;;;7.57;3.80;;;;;;;;;;5032840;28;20632;-64
2022/04/21 02:33:02;;;;;;;6.55;3.58;;;;;;;;;;5038709;28;20067;-65
2022/04/21 02:35:27;;;;;;;5.53;3.60;;;;;;;;;;5032615;28;20029;-64
2022/04/21 02:37:53;;;;;;;10.35;3.80;;;;;;;;;;5028815;28;20402;-65
2022/04/21 02:40:18;;;;;;;6.32;3.72;;;;;;;;;;5033745;28;20391;-63
2022/04/21 02:42:44;;;;;;;6.70;4.05;;;;;;;;;;5027852;28;20072;-64
2022/04/21 02:45:11;;;;;;;6.03;3.80;;;;;;;;;;5027534;28;20156;-64
2022/04/21 02:47:38;;;;;;;6.88;3.88;;;;;;;;;;5019026;28;20127;-64
2022/04/21 02:50:05;;;;;;;6.78;3.88;;;;;;;;;;5046826;28;20036;-64
2022/04/21 02:52:33;;;;;;;5.70;3.65;;;;;;;;;;5033062;28;20160;-63
2022/04/21 02:57:43;;;;;;;9.52;4.18;;;;;;;;;;5014204;28;20053;-64
2022/04/21 03:00:09;;;;;;;7.35;4.10;;;;;;;;;;5014128;28;20030;-64
2022/04/21 03:02:35;;;;;;;11.45;4.40;;;;;;;;;;5020567;28;20046;-64
2022/04/21 03:05:00;;;;;;;7.90;4.07;;;;;;;;;;5046047;28;20080;-66
2022/04/21 03:07:25;;;;;;;5.57;3.65;;;;;;;;;;5032734;28;20026;-63
2022/04/21 03:09:53;;;;;;;7.53;4.15;;;;;;;;;;5032042;28;20040;-64
2022/04/21 03:12:21;;;;;;;8.20;4.40;;;;;;;;;;5033426;28;20104;-64
2022/04/21 03:14:47;;;;;;;6.38;4.25;;;;;;;;;;5025809;28;20025;-64
2022/04/21 03:17:12;;;;;;;6.35;3.97;;;;;;;;;;5030184;28;20116;-64
2022/04/21 03:19:38;;;;;;;7.63;4.20;;;;;;;;;;5019192;28;20105;-64
2022/04/21 03:24:48;;;;;;;7.45;4.63;;;;;;;;;;5031479;28;20044;-64
2022/04/21 03:27:15;;;;;;;9.25;4.30;;;;;;;;;;5024175;28;20030;-64
2022/04/21 03:29:41;;;;;;;7.20;4.38;;;;;;;;;;5026605;28;20815;-63
2022/04/21 03:32:10;;;;;;;6.32;4.05;;;;;;;;;;5028995;28;20037;-64
2022/04/21 03:34:42;;;;;;;6.10;4.20;;;;;;;;;;5016861;28;20033;-64
2022/04/21 03:37:14;;;;;;;7.13;4.35;;;;;;;;;;5014539;28;20042;-64
2022/04/21 03:39:41;;;;;;;9.27;4.55;;;;;;;;;;5021111;28;20055;-64
2022/04/21 03:42:17;;;;;;;7.20;4.10;;;;;;;;;;5022711;28;20112;-64
2022/04/21 03:44:42;;;;;;;6.57;4.30;;;;;;;;;;5023972;28;20625;-64
2022/04/21 03:47:08;;;;;;;6.22;4.22;;;;;;;;;;5014795;28;20030;-64
2022/04/21 03:49:34;;;;;;;8.57;4.10;;;;;;;;;;5046737;28;20036;-64
2022/04/21 03:51:59;;;;;;;6.00;4.13;;;;;;;;;;5034349;28;20029;-64
2022/04/21 03:54:26;;;;;;;6.93;4.50;;;;;;;;;;5028406;28;20033;-63
2022/04/21 03:56:53;;;;;;;8.82;4.40;;;;;;;;;;5032245;28;20125;-64
2022/04/21 03:59:19;;;;;;;8.77;4.50;;;;;;;;;;5032873;28;20390;-65
2022/04/21 04:01:45;;;;;;;7.38;4.32;;;;;;;;;;5020352;28;20018;-64
2022/04/21 04:04:11;;;;;;;6.55;4.25;;;;;;;;;;5015046;28;20037;-64
2022/04/21 04:12:06;;;;;;;11.50;5.00;;;;;;;;;;5031654;28;20501;-64
2022/04/21 04:14:31;;;;;;;8.52;4.63;;;;;;;;;;5031752;28;20037;-63
2022/04/21 04:16:57;;;;;;;8.77;4.88;;;;;;;;;;5026466;28;20036;-64
2022/04/21 04:19:23;;;;;;;9.25;4.55;;;;;;;;;;5033633;28;20061;-64
2022/04/21 04:21:48;;;;;;;9.38;4.70;;;;;;;;;;5027227;28;20044;-63
2022/04/21 04:24:13;;;;;;;9.20;4.80;;;;;;;;;;5052487;28;20025;-63
2022/04/21 04:26:39;;;;;;;7.00;4.40;;;;;;;;;;5028596;28;20029;-63
2022/04/21 04:29:05;;;;;;;8.75;5.18;;;;;;;;;;5033589;28;20434;-65
2022/04/21 04:31:31;;;;;;;6.72;4.28;;;;;;;;;;5018503;28;20034;-66
2022/04/21 04:33:57;;;;;;;9.48;4.90;;;;;;;;;;5031007;28;20502;-65
2022/04/21 04:36:23;;;;;;;8.85;4.55;;;;;;;;;;5027934;28;20057;-64
2022/04/21 04:38:49;;;;;;;6.18;4.38;;;;;;;;;;5015920;28;20526;-64
2022/04/21 04:43:59;;;;;;;6.40;4.30;;;;;;;;;;5030257;28;20036;-65
2022/04/21 04:46:40;;;;;;;6.97;4.45;;;;;;;;;;5025470;28;20026;-66
2022/04/21 04:49:07;;;;;;;7.50;5.25;;;;;;;;;;5035732;28;20071;-65
2022/04/21 04:51:34;;;;;;;9.40;5.00;;;;;;;;;;5018655;28;20037;-64
2022/04/21 04:54:01;;;;;;;7.68;4.50;;;;;;;;;;5032348;28;20041;-64
2022/04/21 04:56:29;;;;;;;8.35;5.05;;;;;;;;;;5030666;28;20052;-63
2022/04/21 04:58:55;;;;;;;10.40;4.80;;;;;;;;;;5029096;28;20033;-65
2022/04/21 05:01:41;;;;;;;8.70;4.40;;;;;;;;;;5030004;28;20025;-64
2022/04/21 05:04:10;;;;;;;7.45;4.63;;;;;;;;;;5012760;28;20038;-65
2022/04/21 05:06:37;;;;;;;10.25;4.70;;;;;;;;;;5021427;28;20028;-64
2022/04/21 05:09:04;;;;;;;7.10;4.47;;;;;;;;;;5025783;28;20041;-65
2022/04/21 05:11:30;;;;;;;6.25;4.28;;;;;;;;;;5021896;28;20025;-63
2022/04/21 05:13:56;;;;;;;10.88;4.65;;;;;;;;;;5031620;28;20052;-64
2022/04/21 05:16:21;;;;;;;8.25;4.40;;;;;;;;;;5029660;28;20036;-64
2022/04/21 05:18:48;;;;;;;12.23;5.05;;;;;;;;;;5014975;28;20049;-66
2022/04/21 05:21:14;;;;;;;10.10;4.50;;;;;;;;;;5006359;28;20065;-65
2022/04/21 05:23:41;;;;;;;7.43;4.35;;;;;;;;;;5043398;28;20050;-64
2022/04/21 05:26:07;;;;;;;7.57;4.40;;;;;;;;;;5030521;28;20411;-64
2022/04/21 05:28:32;;;;;;;6.45;4.05;;;;;;;;;;5050488;28;20033;-64
2022/04/21 05:30:58;;;;;;;10.85;4.85;;;;;;;;;;5033538;28;20037;-64
2022/04/21 05:33:28;;;;;;;7.93;4.57;;;;;;;;;;5025106;28;20029;-65
2022/04/21 05:35:55;;;;;;;8.27;4.55;;;;;;;;;;5045236;28;20040;-65
2022/04/21 05:38:22;;;;;;;9.00;4.82;;;;;;;;;;5034880;28;20072;-64
2022/04/21 05:40:49;;;;;;;7.97;4.50;;;;;;;;;;5011848;28;20118;-64
2022/04/21 05:43:20;;;;;;;9.07;4.85;;;;;;;;;;5036367;28;20033;-63
2022/04/21 05:45:47;;;;;;;7.32;4.57;;;;;;;;;;5032946;28;20080;-62
2022/04/21 05:48:14;;;;;;;7.75;4.63;;;;;;;;;;5041244;28;20047;-62
2022/04/21 05:50:42;;;;;;;7.95;4.90;;;;;;;;;;5034415;28;20496;-62
2022/04/21 05:53:14;;;;;;;7.65;4.60;;;;;;;;;;5012684;28;20084;-62
2022/04/21 05:55:39;;;;;;;10.75;4.68;;;;;;;;;;5023331;28;20052;-62
2022/04/21 05:58:05;;;;;;;8.25;4.95;;;;;;;;;;5026828;28;20470;-62
2022/04/21 06:00:31;;;;;;;7.47;4.65;;;;;;;;;;5029987;28;20433;-62
2022/04/21 06:02:56;;;;;;;6.70;4.32;;;;;;;;;;5040721;28;20038;-62
2022/04/21 06:05:22;;;;;;;6.97;4.50;;;;;;;;;;5049355;28;20409;-62
2022/04/21 06:07:47;;;;;;;7.13;4.60;;;;;;;;;;5035022;28;20449;-62
2022/04/21 06:10:12;;;;;;;8.43;4.28;;;;;;;;;;5045618;28;20425;-62
2022/04/21 06:12:38;;;;;;;10.77;4.93;;;;;;;;;;5045407;28;20049;-62
2022/04/21 06:15:03;;;;;;;8.13;4.55;;;;;;;;;;5031279;28;20057;-62
2022/04/21 06:17:29;;;;;;;6.55;4.50;;;;;;;;;;5018153;28;20475;-62
2022/04/21 06:19:55;;;;;;;8.70;4.93;;;;;;;;;;5032517;28;20403;-62
2022/04/21 06:22:20;;;;;;;6.70;4.47;;;;;;;;;;5033294;28;20037;-62
2022/04/21 06:24:46;;;;;;;6.60;4.60;;;;;;;;;;5028557;28;20040;-62
2022/04/21 06:27:11;;;;;;;7.00;4.40;;;;;;;;;;5030782;28;20029;-62
2022/04/21 06:29:36;;;;;;;7.38;4.40;;;;;;;;;;5019243;28;20040;-62
2022/04/21 06:32:02;;;;;;;7.65;5.28;;;;;;;;;;5038503;28;20458;-62
2022/04/21 06:34:27;;;;;;;7.03;4.40;;;;;;;;;;5044349;28;20051;-62
2022/04/21 06:36:53;;;;;;;6.38;4.40;;;;;;;;;;5050816;28;20029;-62
2022/04/21 06:39:18;;;;;;;7.60;4.63;;;;;;;;;;5042264;28;20031;-62
2022/04/21 06:41:43;;;;;;;6.88;4.90;;;;;;;;;;5030643;28;20151;-62
2022/04/21 06:49:37;;;;;;;8.10;4.80;;;;;;;;;;5032440;28;20039;-62
2022/04/21 06:52:03;;;;;;;9.32;4.60;;;;;;;;;;5030363;28;20033;-62
2022/04/21 06:54:28;;;;;;;7.20;4.47;;;;;;;;;;5019012;28;20034;-62
2022/04/21 06:56:54;;;;;;;6.43;4.25;;;;;;;;;;5009556;28;20099;-63
2022/04/21 06:59:19;;;;;;;7.10;4.32;;;;;;;;;;5044031;28;20036;-62
2022/04/21 07:01:46;;;;;;;6.95;4.53;;;;;;;;;;5050119;28;20021;-62
2022/04/21 07:04:13;;;;;;;6.82;4.03;;;;;;;;;;5028800;28;20033;-62
2022/04/21 07:06:38;;;;;;;5.95;4.10;;;;;;;;;;5033413;28;20460;-62
2022/04/21 07:09:04;;;;;;;6.60;4.30;;;;;;;;;;5035189;28;20051;-62
2022/04/21 07:11:30;;;;;;;6.53;4.18;;;;;;;;;;5031186;28;20025;-63
2022/04/21 07:13:56;;;;;;;8.65;4.45;;;;;;;;;;5044609;28;20106;-63
2022/04/21 07:16:21;;;;;;;8.35;4.50;;;;;;;;;;5031733;28;20033;-62
2022/04/21 07:18:47;;;;;;;7.97;4.40;;;;;;;;;;5034482;28;20033;-62
2022/04/21 07:21:13;;;;;;;7.05;4.35;;;;;;;;;;5049260;28;20079;-62
2022/04/21 07:23:39;;;;;;;7.70;4.55;;;;;;;;;;5033637;28;20042;-63
2022/04/21 07:26:05;;;;;;;6.97;4.40;;;;;;;;;;5024960;28;20044;-63
2022/04/21 07:28:30;;;;;;;6.80;4.25;;;;;;;;;;5034822;28;20100;-62
2022/04/21 07:30:56;;;;;;;6.03;4.00;;;;;;;;;;5032363;28;20117;-62
2022/04/21 07:33:21;;;;;;;8.38;4.10;;;;;;;;;;5022278;28;20442;-63
2022/04/21 07:35:47;;;;;;;5.78;4.10;;;;;;;;;;5024389;28;20483;-62
2022/04/21 07:38:12;;;;;;;8.07;4.18;;;;;;;;;;5032626;28;20033;-63
2022/04/21 07:40:41;;;;;;;6.15;4.00;;;;;;;;;;5036291;28;20033;-62
2022/04/21 07:43:09;;;;;;;6.97;4.45;;;;;;;;;;5031638;28;20459;-62
2022/04/21 07:45:38;;;;;;;7.70;4.10;;;;;;;;;;5036920;28;20467;-62
2022/04/21 07:48:04;;;;;;;7.30;4.03;;;;;;;;;;5035605;28;20029;-62
2022/04/21 07:50:30;;;;;;;7.70;3.83;;;;;;;;;;5052426;28;20040;-62
2022/04/21 07:53:13;;;;;;;8.50;4.30;;;;;;;;;;5047599;28;20029;-62
2022/04/21 07:55:44;;;;;;;6.13;3.60;;;;;;;;;;5033564;28;20088;-62
2022/04/21 07:58:09;;;;;;;6.95;3.58;;;;;;;;;;5039665;28;20094;-62
2022/04/21 08:00:36;;;;;;;6.68;3.80;;;;;;;;;;5054059;28;20029;-62
2022/04/21 08:03:06;;;;;;;6.07;3.40;;;;;;;;;;5043061;28;20045;-62
2022/04/21 08:05:32;;;;;;;5.78;3.15;;;;;;;;;;5033907;28;20536;-62
2022/04/21 08:07:58;;;;;;;4.85;3.33;;;;;;;;;;5036941;28;20112;-62
2022/04/21 08:10:27;;;;;;;5.43;3.53;;;;;;;;;;5041569;28;20032;-62
2022/04/21 08:12:54;;;;;;;6.15;3.70;;;;;;;;;;5041456;28;20034;-63
2022/04/21 08:15:31;;;;;;;6.45;3.78;;;;;;;;;;5041763;28;20038;-62
2022/04/21 08:17:58;;;;;;;6.28;3.53;;;;;;;;;;5047611;28;20040;-62
2022/04/21 08:20:25;;;;;;;6.82;3.80;;;;;;;;;;5052444;28;20475;-61
2022/04/21 08:22:51;;;;;;;5.03;3.40;;;;;;;;;;5041633;28;20068;-62
2022/04/21 08:33:29;;;;;;;7.35;3.70;;;;;;;;;;5023474;28;20087;-61
2022/04/21 08:35:58;;;;;;;7.18;3.45;;;;;;;;;;5024006;28;20109;-61
2022/04/21 08:38:25;;;;;;;7.03;3.33;;;;;;;;;;5038973;28;20064;-63
2022/04/21 08:40:56;;;;;;;5.30;3.42;;;;;;;;;;5045158;28;20029;-62
2022/04/21 08:43:23;;;;;;;5.97;3.50;;;;;;;;;;5032992;28;20033;-62
2022/04/21 08:45:51;;;;;;;6.88;3.53;;;;;;;;;;5042389;28;20037;-62
2022/04/21 08:48:20;;;;;;;5.97;3.45;;;;;;;;;;5038682;28;20033;-62
2022/04/21 08:50:46;;;;;;;5.70;3.53;;;;;;;;;;5033471;28;20037;-63
2022/04/21 08:53:15;;;;;;;6.78;3.50;;;;;;;;;;5013043;28;20038;-62
2022/04/21 08:55:41;;;;;;;5.13;3.30;;;;;;;;;;5036003;28;20475;-64
2022/04/21 08:58:06;;;;;;;7.82;3.55;;;;;;;;;;5052478;28;20040;-62
2022/04/21 09:00:32;;;;;;;4.88;3.70;;;;;;;;;;5046713;28;20504;-62
2022/04/21 09:03:04;;;;;;;5.90;3.63;;;;;;;;;;5029352;28;20029;-62
2022/04/21 09:05:30;;;;;;;5.53;3.47;;;;;;;;;;5040407;28;20037;-62
2022/04/21 09:07:59;;;;;;;8.23;3.38;;;;;;;;;;5046709;28;20463;-63
2022/04/21 09:10:32;;;;;;;6.32;3.45;;;;;;;;;;5030932;28;20029;-63
2022/04/21 09:13:00;;;;;;;6.53;3.45;;;;;;;;;;5049282;28;20036;-63
2022/04/21 09:15:27;;;;;;;5.28;3.53;;;;;;;;;;5052402;28;20037;-64
2022/04/21 09:17:57;;;;;;;4.45;3.03;;;;;;;;;;5015686;28;20095;-63
2022/04/21 09:20:29;;;;;;;5.68;3.35;;;;;;;;;;5032470;28;20029;-64
2022/04/21 09:22:56;;;;;;;5.97;3.30;;;;;;;;;;5049319;28;20128;-63
2022/04/21 09:25:27;;;;;;;8.18;3.15;;;;;;;;;;5052352;28;20564;-63
2022/04/21 09:27:53;;;;;;;7.28;3.20;;;;;;;;;;5034002;28;20044;-62
2022/04/21 09:30:19;;;;;;;7.82;3.80;;;;;;;;;;5032595;28;20109;-62
2022/04/21 09:32:51;;;;;;;5.63;3.30;;;;;;;;;;5031126;28;20100;-62
2022/04/21 09:35:18;;;;;;;5.78;3.40;;;;;;;;;;5030142;28;20029;-63
2022/04/21 09:37:53;;;;;;;6.32;3.40;;;;;;;;;;5045350;28;20112;-63
2022/04/21 09:40:23;;;;;;;5.20;3.40;;;;;;;;;;5050672;28;20537;-63
2022/04/21 09:42:53;;;;;;;7.18;3.40;;;;;;;;;;5043626;28;20044;-63
2022/04/21 09:48:11;;;;;;;6.95;3.67;;;;;;;;;;5021289;28;20060;-64
2022/04/21 09:50:41;;;;;;;5.78;3.10;;;;;;;;;;5038108;28;20033;-64
2022/04/21 09:53:06;;;;;;;5.22;3.30;;;;;;;;;;5048039;28;20145;-62
2022/04/21 09:55:31;;;;;;;5.00;3.40;;;;;;;;;;5041092;28;20080;-64
2022/04/21 09:58:06;;;;;;;7.25;3.30;;;;;;;;;;5037712;28;20113;-62
2022/04/21 10:00:34;;;;;;;5.40;3.30;;;;;;;;;;5049899;28;20040;-63
2022/04/21 10:03:00;;;;;;;5.28;3.47;;;;;;;;;;5049390;28;20083;-63
2022/04/21 10:05:26;;;;;;;6.20;3.50;;;;;;;;;;5027662;28;20041;-63
2022/04/21 10:07:52;;;;;;;4.82;3.30;;;;;;;;;;5019177;28;20032;-63
2022/04/21 10:10:18;;;;;;;5.55;3.47;;;;;;;;;;5030575;28;20109;-62
2022/04/21 10:12:46;;;;;;;6.38;3.58;;;;;;;;;;5049998;28;20110;-62
2022/04/21 10:15:11;;;;;;;12.23;3.90;;;;;;;;;;5050388;28;20033;-63
2022/04/21 10:17:37;;;;;;;6.50;3.80;;;;;;;;;;5037367;28;20048;-63
2022/04/21 10:20:04;;;;;;;6.50;3.38;;;;;;;;;;5030989;28;20038;-63
2022/04/21 10:22:33;;;;;;;5.65;3.58;;;;;;;;;;5022981;28;20088;-63
2022/04/21 10:24:59;;;;;;;9.32;3.53;;;;;;;;;;5010035;28;20021;-62
2022/04/21 10:27:46;;;;;;;5.65;3.55;;;;;;;;;;5031836;28;20065;-63
2022/04/21 10:30:29;;;;;;;7.63;3.97;;;;;;;;;;5031500;28;20075;-63
2022/04/21 10:32:56;;;;;;;7.65;3.85;;;;;;;;;;5046009;28;20405;-62
2022/04/21 10:35:28;;;;;;;6.32;3.55;;;;;;;;;;5048933;28;20032;-63
2022/04/21 10:38:12;;;;;;;5.00;3.60;;;;;;;;;;5046753;28;20060;-63
2022/04/21 10:40:53;;;;;;;7.95;3.80;;;;;;;;;;5028291;28;20109;-63
2022/04/21 10:43:19;;;;;;;6.45;3.90;;;;;;;;;;5030647;28;20029;-63
2022/04/21 10:46:05;;;;;;;5.45;3.60;;;;;;;;;;5032688;28;20391;-63
2022/04/21 10:48:41;;;;;;;5.68;3.67;;;;;;;;;;5028377;28;20041;-63
2022/04/21 10:51:07;;;;;;;9.52;3.90;;;;;;;;;;5013898;28;20026;-63
2022/04/21 10:57:13;;;;;;;5.80;3.40;;;;;;;;;;4957499;28;20065;-63
2022/04/21 10:59:58;;;;;;;9.48;3.65;;;;;;;;;;4970254;28;20129;-63
2022/04/21 11:02:39;;;;;;;5.82;2.92;;;;;;;;;;4968679;28;20169;-63
2022/04/21 11:05:23;;;;;;;6.45;2.95;;;;;;;;;;4954387;28;20039;-63
2022/04/21 11:07:59;;;;;;;5.78;2.83;;;;;;;;;;4953064;28;20155;-63
2022/04/21 11:10:37;;;;;;;5.93;2.95;;;;;;;;;;4954907;29;20028;-63
2022/04/21 11:13:04;;;;;;;4.70;2.60;;;;;;;;;;4970874;28;20043;-63
2022/04/21 11:15:37;;;;;;;6.13;3.00;;;;;;;;;;4974137;28;20038;-63
2022/04/21 11:18:13;;;;;;;6.05;3.00;;;;;;;;;;4971714;28;20043;-63
2022/04/21 11:20:40;;;;;;;3.83;2.88;;;;;;;;;;4969204;28;20489;-63
2022/04/21 11:23:10;;;;;;;6.93;2.88;;;;;;;;;;4963180;28;20102;-63
2022/04/21 11:25:35;;;;;;;5.95;2.80;;;;;;;;;;4954767;28;20045;-63
2022/04/21 11:28:02;;;;;;;4.40;2.88;;;;;;;;;;4999775;28;20042;-63
2022/04/21 11:30:32;;;;;;;5.32;3.00;;;;;;;;;;5013342;28;20090;-63
2022/04/21 11:32:57;;;;;;;6.75;3.38;;;;;;;;;;5052776;28;20385;-63
2022/04/21 11:35:24;;;;;;;6.00;3.10;;;;;;;;;;5048885;28;20033;-63
2022/04/21 11:37:57;;;;;;;6.80;3.20;;;;;;;;;;5048188;28;20788;-63
2022/04/21 11:40:36;;;;;;;7.60;3.40;;;;;;;;;;5026735;28;20068;-63
2022/04/21 11:43:11;;;;;;;7.13;3.25;;;;;;;;;;5043783;28;20410;-63
2022/04/21 11:45:38;;;;;;;3.80;2.85;;;;;;;;;;5052782;28;20028;-63
2022/04/21 11:48:12;;;;;;;4.18;3.13;;;;;;;;;;5023053;28;20125;-63
2022/04/21 11:50:43;;;;;;;6.55;3.47;;;;;;;;;;5032742;28;20028;-63
2022/04/21 11:53:18;;;;;;;8.73;3.53;;;;;;;;;;5053565;28;20039;-63
2022/04/21 11:55:45;;;;;;;5.93;3.30;;;;;;;;;;5052325;28;20112;-63
2022/04/21 11:58:10;;;;;;;8.75;3.47;;;;;;;;;;5043718;28;20143;-63
2022/04/21 12:08:50;;;;;;;5.57;3.67;;;;;;;;;;5033812;28;20040;-63
2022/04/21 12:11:18;;;;;;;7.57;3.90;;;;;;;;;;5042296;28;20029;-63
2022/04/21 12:13:44;;;;;;;7.28;3.78;;;;;;;;;;5052524;28;20363;-63
2022/04/21 12:16:42;;;;;;;7.75;3.60;;;;;;;;;;5047646;28;20044;-63
2022/04/21 12:19:16;;;;;;;6.78;3.95;;;;;;;;;;5035976;28;20029;-63
2022/04/21 12:21:55;;;;;;;9.93;3.60;;;;;;;;;;5035329;28;20048;-63
2022/04/21 12:24:29;;;;;;;5.88;4.00;;;;;;;;;;5049457;28;20040;-63
2022/04/21 12:26:54;;;;;;;7.15;4.00;;;;;;;;;;5049362;28;20174;-63
2022/04/21 12:29:21;;;;;;;7.10;4.22;;;;;;;;;;5052001;28;20530;-63
2022/04/21 12:31:55;;;;;;;6.95;4.32;;;;;;;;;;5049184;28;20036;-63
2022/04/21 12:34:29;;;;;;;6.22;4.20;;;;;;;;;;5036661;28;20033;-63
2022/04/21 12:36:59;;;;;;;5.65;4.30;;;;;;;;;;5036229;28;20037;-63
2022/04/21 12:39:26;;;;;;;11.38;4.25;;;;;;;;;;5018421;28;20399;-63
2022/04/21 12:41:52;;;;;;;6.97;4.28;;;;;;;;;;5048320;28;20037;-63
2022/04/21 12:44:22;;;;;;;7.80;4.10;;;;;;;;;;5035245;28;20033;-63
2022/04/21 12:47:03;;;;;;;5.80;4.00;;;;;;;;;;5053200;28;20032;-63
2022/04/21 12:49:51;;;;;;;5.93;4.30;;;;;;;;;;5050402;28;20036;-63
2022/04/21 12:52:35;;;;;;;7.15;4.20;;;;;;;;;;5046232;28;20029;-63
2022/04/21 12:55:05;;;;;;;7.68;4.20;;;;;;;;;;5024909;28;20101;-63
2022/04/21 12:57:30;;;;;;;5.85;4.10;;;;;;;;;;5026359;28;20033;-62
2022/04/21 12:59:56;;;;;;;6.47;4.00;;;;;;;;;;5046354;28;20040;-63
2022/04/21 13:02:22;;;;;;;5.82;4.00;;;;;;;;;;5051813;28;20036;-63
2022/04/21 13:04:48;;;;;;;8.00;4.70;;;;;;;;;;5049406;28;20036;-63
2022/04/21 13:07:14;;;;;;;7.40;4.57;;;;;;;;;;5044954;28;20083;-63
2022/04/21 13:09:39;;;;;;;9.18;4.20;;;;;;;;;;5041968;28;20044;-61
2022/04/21 13:12:06;;;;;;;8.52;4.20;;;;;;;;;;5034418;28;20033;-61
2022/04/21 13:14:31;;;;;;;6.40;4.22;;;;;;;;;;5032945;28;20033;-62
2022/04/21 13:16:57;;;;;;;8.27;4.60;;;;;;;;;;5031988;28;20033;-64
2022/04/21 13:19:23;;;;;;;8.30;3.72;;;;;;;;;;5025476;28;20049;-60
2022/04/21 13:21:57;;;;;;;5.90;4.25;;;;;;;;;;5022796;28;20056;-61
2022/04/21 13:24:23;;;;;;;6.25;4.15;;;;;;;;;;5031839;28;20168;-60
2022/04/21 13:26:49;;;;;;;5.97;4.15;;;;;;;;;;5022745;28;20034;-60
2022/04/21 13:29:14;;;;;;;6.28;4.40;;;;;;;;;;5018355;28;20029;-61
2022/04/21 13:34:23;;;;;;;10.45;4.30;;;;;;;;;;5032120;28;20029;-59
2022/04/21 13:36:49;;;;;;;7.93;4.30;;;;;;;;;;5043145;28;20347;-60
2022/04/21 13:39:15;;;;;;;9.00;4.50;;;;;;;;;;5044261;28;20038;-60
2022/04/21 13:41:41;;;;;;;6.47;4.75;;;;;;;;;;5032691;28;20040;-60
2022/04/21 13:44:06;;;;;;;8.52;4.50;;;;;;;;;;5026660;28;20037;-59
2022/04/21 13:46:35;;;;;;;9.30;4.80;;;;;;;;;;5025883;28;20042;-61
2022/04/21 13:49:01;;;;;;;9.23;4.90;;;;;;;;;;5045759;28;20037;-61
2022/04/21 13:51:26;;;;;;;8.55;4.70;;;;;;;;;;5048868;28;20032;-61
2022/04/21 13:53:52;;;;;;;7.82;4.70;;;;;;;;;;5033506;28;20503;-59
2022/04/21 13:56:18;;;;;;;5.72;4.47;;;;;;;;;;5029655;28;20059;-59
2022/04/21 13:58:44;;;;;;;6.97;4.40;;;;;;;;;;5031218;28;20033;-59
2022/04/21 14:01:09;;;;;;;6.43;4.25;;;;;;;;;;5037945;28;20452;-59
2022/04/21 14:03:37;;;;;;;5.90;4.00;;;;;;;;;;5025407;28;20120;-60
2022/04/21 14:06:07;;;;;;;7.05;4.07;;;;;;;;;;5040916;28;20033;-62
2022/04/21 14:08:36;;;;;;;7.22;4.45;;;;;;;;;;5035985;28;20025;-60
2022/04/21 14:11:03;;;;;;;8.87;4.07;;;;;;;;;;5030157;28;20038;-59
2022/04/21 14:13:28;;;;;;;11.32;4.18;;;;;;;;;;5029963;28;20084;-59
2022/04/21 14:15:54;;;;;;;6.57;4.13;;;;;;;;;;5052307;28;20029;-59
2022/04/21 14:18:19;;;;;;;6.30;4.07;;;;;;;;;;5047786;28;20360;-60
2022/04/21 14:20:46;;;;;;;9.38;3.70;;;;;;;;;;5035829;28;20057;-59
2022/04/21 14:23:15;;;;;;;5.13;3.40;;;;;;;;;;5035496;28;20053;-59
2022/04/21 14:25:41;;;;;;;5.15;3.40;;;;;;;;;;5050180;28;20116;-59
2022/04/21 14:28:07;;;;;;;5.88;3.40;;;;;;;;;;5044545;28;20032;-60
2022/04/21 14:30:33;;;;;;;7.07;3.63;;;;;;;;;;5011037;28;20034;-60
2022/04/21 14:32:58;;;;;;;6.80;4.10;;;;;;;;;;5035435;28;20037;-60
2022/04/21 14:35:24;;;;;;;5.97;3.70;;;;;;;;;;5017231;28;20087;-61
2022/04/21 14:46:02;;;;;;;8.98;4.32;;;;;;;;;;5014972;28;20136;-61
2022/04/21 14:48:28;;;;;;;6.70;3.90;;;;;;;;;;5031691;28;20033;-61
2022/04/21 14:50:54;;;;;;;5.95;4.00;;;;;;;;;;5036730;28;20061;-59
2022/04/21 14:53:19;;;;;;;5.60;4.22;;;;;;;;;;5034671;28;20507;-60
2022/04/21 14:55:45;;;;;;;7.60;4.57;;;;;;;;;;5015573;28;20368;-60
2022/04/21 14:58:10;;;;;;;8.50;4.10;;;;;;;;;;5032954;28;20045;-59
2022/04/21 15:00:37;;;;;;;6.25;4.40;;;;;;;;;;5034504;28;20069;-59
2022/04/21 15:03:02;;;;;;;8.45;4.35;;;;;;;;;;5033354;28;20463;-60
2022/04/21 15:05:28;;;;;;;8.38;4.15;;;;;;;;;;5032782;28;20033;-60
2022/04/21 15:07:53;;;;;;;6.82;4.38;;;;;;;;;;5033821;28;20029;-59
2022/04/21 15:10:18;;;;;;;8.40;4.15;;;;;;;;;;5019865;28;20038;-59
2022/04/21 15:12:44;;;;;;;9.23;4.10;;;;;;;;;;5019648;28;20057;-59
2022/04/21 15:15:10;;;;;;;8.00;4.15;;;;;;;;;;5034336;28;20391;-59
2022/04/21 15:17:35;;;;;;;8.82;3.90;;;;;;;;;;5035328;28;20029;-59
2022/04/21 15:20:03;;;;;;;6.90;3.92;;;;;;;;;;5015842;28;20295;-62
2022/04/21 15:22:29;;;;;;;6.80;4.07;;;;;;;;;;5014398;28;20129;-60
2022/04/21 15:24:54;;;;;;;10.45;4.20;;;;;;;;;;5014957;28;20113;-60
2022/04/21 15:27:20;;;;;;;7.38;4.03;;;;;;;;;;5014149;28;20033;-60
2022/04/21 15:29:46;;;;;;;7.55;4.07;;;;;;;;;;5028955;28;20463;-60
2022/04/21 15:32:12;;;;;;;6.85;4.18;;;;;;;;;;5033588;28;20534;-60
2022/04/21 15:34:38;;;;;;;7.22;4.10;;;;;;;;;;5019854;28;20040;-60
2022/04/21 15:37:06;;;;;;;8.45;4.43;;;;;;;;;;5027001;28;20033;-62
2022/04/21 15:39:31;;;;;;;8.18;4.45;;;;;;;;;;5037082;28;20048;-60
2022/04/21 15:41:56;;;;;;;7.35;4.35;;;;;;;;;;5034133;28;20464;-60
2022/04/21 15:44:22;;;;;;;8.95;4.43;;;;;;;;;;5031637;28;20037;-60
2022/04/21 15:46:48;;;;;;;7.93;4.53;;;;;;;;;;5028727;28;20112;-60